Time;durP1;ratioP1;P1;durP2;ratioP2;P2;SDS_P1;SDS_P2;PMS_P1;PMS_P2;Temp;Humidity;BMP_temperature;BMP_pressure;BME280_temperature;BME280_humidity;BME280_pressure;Samples;Min_cycle;Max_cycle;Signal;HPM_P1;HPM_P2
2023/06/03 00:01:50;;;;;;;;;;;;;;;12.85;100.00;98462.84;4878840;29;19934;-85
2023/06/03 00:04:17;;;;;;;;;;;;;;;12.88;100.00;98467.69;4881150;29;19928;-84
2023/06/03 00:06:44;;;;;;;;;;;;;;;12.91;100.00;98460.94;4888327;29;19927;-83
2023/06/03 00:09:11;;;;;;;;;;;;;;;12.85;100.00;98473.66;4884060;29;20411;-84
2023/06/03 00:11:38;;;;;;;;;;;;;;;12.82;100.00;98471.50;4879410;29;19935;-84
2023/06/03 00:14:05;;;;;;;;;;;;;;;12.76;99.16;98491.53;4878940;29;19928;-84
2023/06/03 00:16:32;;;;;;;;;;;;;;;12.55;98.56;98496.13;4879865;29;19968;-84
2023/06/03 00:18:59;;;;;;;;;;;;;;;12.51;98.78;98509.41;4877540;29;19927;-82
2023/06/03 00:21:27;;;;;;;;;;;;;;;12.55;98.48;98504.25;4879027;29;19994;-84
2023/06/03 00:23:54;;;;;;;;;;;;;;;12.49;98.22;98516.16;4879207;29;20458;-83
2023/06/03 00:26:22;;;;;;;;;;;;;;;12.41;97.73;98514.81;4878097;29;20058;-84
2023/06/03 00:28:55;;;;;;;;;;;;;;;12.31;97.37;98512.91;4877359;29;20339;-84
2023/06/03 00:31:22;;;;;;;;;;;;;;;12.24;97.13;98517.75;4877797;29;19928;-84
2023/06/03 00:33:50;;;;;;;;;;;;;;;12.19;97.35;98511.50;4861371;29;19927;-84
2023/06/03 00:36:18;;;;;;;;;;;;;;;12.20;97.30;98510.44;4877114;29;19927;-83
2023/06/03 00:38:47;;;;;;;;;;;;;;;12.23;97.14;98505.31;4877907;29;19927;-83
2023/06/03 00:41:18;;;;;;;;;;;;;;;12.20;96.29;98496.91;4862139;29;19928;-83
2023/06/03 00:43:45;;;;;;;;;;;;;;;12.11;95.88;98491.22;4877840;29;19927;-83
2023/06/03 00:46:12;;;;;;;;;;;;;;;12.06;95.91;98483.09;4878200;29;20323;-84
2023/06/03 00:48:39;;;;;;;;;;;;;;;12.04;95.89;98477.94;4876711;29;19931;-84
2023/06/03 00:51:18;;;;;;;;;;;;;;;12.05;95.86;98466.06;4863428;29;19928;-84
2023/06/03 00:53:45;;;;;;;;;;;;;;;12.07;95.97;98461.16;4876835;29;19927;-84
2023/06/03 00:56:12;;;;;;;;;;;;;;;12.05;95.68;98462.50;4876990;29;19979;-84
2023/06/03 00:58:40;;;;;;;;;;;;;;;11.98;95.25;98459.28;4861416;29;20302;-84
2023/06/03 01:01:13;;;;;;;;;;;;;;;11.95;95.38;98455.22;4876672;29;19934;-83
2023/06/03 01:03:42;;;;;;;;;;;;;;;11.91;95.64;98456.81;4873514;29;19962;-83
2023/06/03 01:06:21;;;;;;;;;;;;;;;11.85;95.62;98455.13;4859677;29;19934;-84
2023/06/03 01:09:10;;;;;;;;;;;;;;;11.88;95.98;98451.94;4877325;29;19928;-83
2023/06/03 01:11:52;;;;;;;;;;;;;;;11.91;96.13;98454.91;4862139;29;20356;-84
2023/06/03 01:14:24;;;;;;;;;;;;;;;11.90;95.93;98444.34;4859821;29;20523;-83
2023/06/03 01:16:52;;;;;;;;;;;;;;;11.87;96.14;98434.06;4858578;29;19966;-84
2023/06/03 01:19:38;;;;;;;;;;;;;;;11.86;96.14;98425.16;4843233;29;20293;-84
2023/06/03 01:22:06;;;;;;;;;;;;;;;11.83;96.28;98432.97;4857828;29;20458;-84
2023/06/03 01:24:34;;;;;;;;;;;;;;;11.83;96.35;98431.06;4858860;29;19928;-83
2023/06/03 01:27:09;;;;;;;;;;;;;;;11.89;96.36;98440.84;4859764;29;19978;-83
2023/06/03 01:29:37;;;;;;;;;;;;;;;11.89;96.47;98448.16;4857936;29;20459;-83
2023/06/03 01:32:04;;;;;;;;;;;;;;;11.82;96.19;98455.66;4858091;29;19939;-84
2023/06/03 01:34:31;;;;;;;;;;;;;;;11.67;95.67;98459.97;4842817;29;20399;-84
2023/06/03 01:36:59;;;;;;;;;;;;;;;11.62;96.13;98446.44;4859463;29;19928;-84
2023/06/03 01:39:26;;;;;;;;;;;;;;;11.69;96.43;98433.44;4859126;29;19928;-83
2023/06/03 01:41:55;;;;;;;;;;;;;;;11.73;96.67;98417.53;4843053;29;19939;-83
2023/06/03 01:44:24;;;;;;;;;;;;;;;11.75;96.96;98417.25;4843074;29;19932;-83
2023/06/03 01:46:53;;;;;;;;;;;;;;;11.66;97.13;98408.84;4857737;29;19950;-84
2023/06/03 01:49:21;;;;;;;;;;;;;;;11.59;97.56;98416.41;4853630;29;19987;-83
2023/06/03 01:51:48;;;;;;;;;;;;;;;11.53;97.85;98412.06;4875977;29;19928;-84
2023/06/03 01:54:18;;;;;;;;;;;;;;;11.49;98.00;98414.47;4877424;29;19928;-83
2023/06/03 01:56:45;;;;;;;;;;;;;;;11.47;98.17;98430.97;4875910;29;19931;-84
2023/06/03 01:59:15;;;;;;;;;;;;;;;11.46;98.16;98442.03;4844496;29;19931;-84
2023/06/03 02:01:45;;;;;;;;;;;;;;;11.45;98.01;98445.81;4859307;29;19979;-84
2023/06/03 02:04:14;;;;;;;;;;;;;;;11.44;97.55;98441.47;4859048;29;20478;-83
2023/06/03 02:06:41;;;;;;;;;;;;;;;11.42;97.49;98449.84;4855942;29;19928;-83
2023/06/03 02:09:09;;;;;;;;;;;;;;;11.41;97.63;98448.22;4871483;29;19928;-83
2023/06/03 02:11:36;;;;;;;;;;;;;;;11.42;97.36;98452.56;4840771;29;19927;-82
2023/06/03 02:14:03;;;;;;;;;;;;;;;11.30;96.47;98451.16;4871343;29;19931;-84
2023/06/03 02:16:33;;;;;;;;;;;;;;;11.34;96.76;98444.13;4875267;29;20005;-81
2023/06/03 02:19:08;;;;;;;;;;;;;;;11.39;96.77;98430.63;4859450;29;19928;-84
2023/06/03 02:21:35;;;;;;;;;;;;;;;11.38;96.89;98439.84;4859541;29;19979;-82
2023/06/03 02:24:02;;;;;;;;;;;;;;;11.41;97.04;98439.31;4844532;29;19934;-82
2023/06/03 02:26:29;;;;;;;;;;;;;;;11.44;97.12;98434.19;4859558;29;19928;-83
2023/06/03 02:28:58;;;;;;;;;;;;;;;11.46;97.16;98442.84;4859139;29;19928;-84
2023/06/03 02:31:27;;;;;;;;;;;;;;;11.48;97.07;98445.28;4875956;29;20383;-83
2023/06/03 02:33:56;;;;;;;;;;;;;;;11.48;97.07;98445.28;4875924;29;20412;-83
2023/06/03 02:36:25;;;;;;;;;;;;;;;11.49;97.03;98450.44;4876807;29;19967;-83
2023/06/03 02:38:52;;;;;;;;;;;;;;;11.52;96.88;98456.34;4879139;29;19976;-83
2023/06/03 02:41:21;;;;;;;;;;;;;;;11.46;96.41;98474.44;4880567;29;19931;-83
2023/06/03 02:43:48;;;;;;;;;;;;;;;11.46;96.72;98479.84;4880138;29;19934;-84
2023/06/03 02:46:18;;;;;;;;;;;;;;;11.49;96.92;98487.44;4880620;29;19927;-84
2023/06/03 02:48:45;;;;;;;;;;;;;;;11.50;96.69;98491.78;4863563;29;19931;-85
2023/06/03 02:51:13;;;;;;;;;;;;;;;11.48;96.77;98492.03;4863820;29;19937;-81
2023/06/03 02:53:40;;;;;;;;;;;;;;;11.47;96.63;98486.91;4879010;29;19971;-82
2023/06/03 02:56:08;;;;;;;;;;;;;;;11.45;96.78;98472.84;4863850;29;19934;-82
2023/06/03 02:58:35;;;;;;;;;;;;;;;11.43;96.66;98473.09;4863372;29;19938;-82
2023/06/03 03:01:02;;;;;;;;;;;;;;;11.41;96.68;98479.81;4879181;29;19939;-82
2023/06/03 03:03:35;;;;;;;;;;;;;;;11.37;96.73;98479.56;4870074;29;19928;-83
2023/06/03 03:06:03;;;;;;;;;;;;;;;11.38;96.88;98483.06;4860334;29;19939;-83
2023/06/03 03:08:31;;;;;;;;;;;;;;;11.36;96.83;98482.50;4862178;29;19927;-83
2023/06/03 03:10:58;;;;;;;;;;;;;;;11.33;96.87;98483.84;4878517;29;19927;-83
2023/06/03 03:13:26;;;;;;;;;;;;;;;11.37;97.12;98486.81;4879731;29;19928;-83
2023/06/03 03:15:52;;;;;;;;;;;;;;;11.34;96.81;98481.94;4878472;29;19927;-83
2023/06/03 03:18:24;;;;;;;;;;;;;;;11.29;96.65;98474.63;4878530;29;20427;-83
2023/06/03 03:20:52;;;;;;;;;;;;;;;11.28;96.76;98471.13;4863260;29;19931;-83
2023/06/03 03:23:20;;;;;;;;;;;;;;;11.26;96.74;98486.75;4878584;29;19934;-83
2023/06/03 03:25:47;;;;;;;;;;;;;;;11.15;96.09;98489.69;4878396;29;20018;-83
2023/06/03 03:28:14;;;;;;;;;;;;;;;11.12;95.88;98491.03;4879133;29;19934;-84
2023/06/03 03:30:43;;;;;;;;;;;;;;;11.12;95.91;98493.72;4879783;29;19928;-83
2023/06/03 03:33:10;;;;;;;;;;;;;;;11.09;95.90;98496.94;4880809;29;19932;-83
2023/06/03 03:35:40;;;;;;;;;;;;;;;11.07;95.81;98497.19;4880349;29;19928;-82
2023/06/03 03:38:07;;;;;;;;;;;;;;;11.11;95.84;98489.38;4879187;29;19981;-83
2023/06/03 03:40:37;;;;;;;;;;;;;;;11.16;95.61;98491.28;4878225;29;19935;-83
2023/06/03 03:43:06;;;;;;;;;;;;;;;11.20;95.46;98487.81;4878373;29;19931;-84
2023/06/03 03:45:34;;;;;;;;;;;;;;;11.26;95.37;98491.34;4878083;29;20409;-83
2023/06/03 03:48:03;;;;;;;;;;;;;;;11.34;95.07;98485.44;4861786;29;19955;-83
2023/06/03 03:50:51;;;;;;;;;;;;;;;11.24;94.31;98497.03;4877983;29;19934;-84
2023/06/03 03:53:57;;;;;;;;;;;;;;;11.15;94.18;98495.91;4879364;29;20228;-83
2023/06/03 03:56:28;;;;;;;;;;;;;;;11.11;94.18;98492.06;4862997;29;19959;-83
2023/06/03 03:58:58;;;;;;;;;;;;;;;11.08;94.60;98489.91;4862746;29;19932;-83
2023/06/03 04:01:35;;;;;;;;;;;;;;;10.82;93.45;98491.63;4877926;29;20055;-83
2023/06/03 04:04:07;;;;;;;;;;;;;;;10.59;93.32;98487.38;4859562;29;20019;-84
2023/06/03 04:06:36;;;;;;;;;;;;;;;10.54;93.99;98480.06;4874241;29;19938;-83
2023/06/03 04:09:07;;;;;;;;;;;;;;;10.61;94.38;98485.25;4877778;29;20023;-84
2023/06/03 04:11:38;;;;;;;;;;;;;;;10.54;93.96;98493.53;4879122;29;19983;-83
2023/06/03 04:14:10;;;;;;;;;;;;;;;10.34;94.07;98501.47;4877235;29;19935;-84
2023/06/03 04:16:48;;;;;;;;;;;;;;;10.33;94.67;98500.66;4861847;29;19950;-82
2023/06/03 04:19:32;;;;;;;;;;;;;;;10.36;94.75;98500.13;4878796;29;19943;-83
2023/06/03 04:22:05;;;;;;;;;;;;;;;10.30;93.96;98493.03;4877591;29;19931;-82
2023/06/03 04:24:42;;;;;;;;;;;;;;;10.21;93.81;98491.88;4878404;29;20034;-84
2023/06/03 04:27:09;;;;;;;;;;;;;;;10.20;93.73;98480.28;4877017;29;19927;-84
2023/06/03 04:29:38;;;;;;;;;;;;;;;10.28;94.03;98494.38;4876866;29;20308;-83
2023/06/03 04:32:06;;;;;;;;;;;;;;;10.28;93.79;98503.31;4877047;29;20284;-84
2023/06/03 04:34:33;;;;;;;;;;;;;;;10.23;93.26;98499.69;4878277;29;19927;-82
2023/06/03 04:37:02;;;;;;;;;;;;;;;10.30;93.41;98489.53;4877326;29;20303;-84
2023/06/03 04:39:29;;;;;;;;;;;;;;;10.45;93.25;98496.97;4876843;29;20438;-83
2023/06/03 04:42:07;;;;;;;;;;;;;;;10.51;93.17;98488.69;4838710;29;19928;-84
2023/06/03 04:44:35;;;;;;;;;;;;;;;10.55;92.92;98489.78;4862036;29;19932;-84
2023/06/03 04:47:02;;;;;;;;;;;;;;;10.63;92.68;98491.19;4529903;29;10000009;-81
2023/06/03 04:49:32;;;;;;;;;;;;;;;10.61;92.61;98506.84;4851831;29;19928;-84
2023/06/03 04:52:01;;;;;;;;;;;;;;;10.67;92.30;98515.78;4862776;29;19963;-84
2023/06/03 04:54:30;;;;;;;;;;;;;;;10.70;91.96;98505.28;4857200;29;20320;-82
2023/06/03 04:56:58;;;;;;;;;;;;;;;10.66;91.46;98503.34;4870593;29;19927;-82
2023/06/03 04:59:28;;;;;;;;;;;;;;;10.65;91.44;98515.22;4864427;29;20451;-81
2023/06/03 05:04:50;;;;;;;;;;;;;;;10.80;91.08;98507.25;4854577;29;19928;-83
2023/06/03 05:07:37;;;;;;;;;;;;;;;10.90;90.08;98510.03;4862280;29;19928;-83
2023/06/03 05:10:04;;;;;;;;;;;;;;;10.92;89.75;98509.78;4874524;29;19928;-86
2023/06/03 05:12:32;;;;;;;;;;;;;;;10.97;89.68;98507.13;4871225;29;19934;-85
2023/06/03 05:14:59;;;;;;;;;;;;;;;10.97;89.44;98504.41;4867248;29;19928;-85
2023/06/03 05:17:27;;;;;;;;;;;;;;;10.87;88.91;98515.13;4856988;29;19928;-85
2023/06/03 05:20:13;;;;;;;;;;;;;;;10.69;87.66;98509.06;4856029;29;20371;-84
2023/06/03 05:22:41;;;;;;;;;;;;;;;10.61;88.03;98504.94;4854506;29;19928;-87
2023/06/03 05:25:10;;;;;;;;;;;;;;;10.70;88.35;98499.88;4854942;29;20052;-84
2023/06/03 05:27:37;;;;;;;;;;;;;;;10.67;88.35;98500.41;4865815;29;19962;-91
2023/06/03 05:30:04;;;;;;;;;;;;;;;10.63;88.31;98501.97;4867542;29;19928;-85
2023/06/03 05:32:34;;;;;;;;;;;;;;;10.50;88.44;98505.09;4863669;29;19932;-86
2023/06/03 05:35:22;;;;;;;;;;;;;;;10.52;88.61;98508.38;4856216;29;19928;-86
2023/06/03 05:37:50;;;;;;;;;;;;;;;10.59;88.34;98503.56;4872437;29;19976;-83
2023/06/03 05:40:17;;;;;;;;;;;;;;;10.52;88.07;98502.97;4875675;29;20030;-85
2023/06/03 05:42:48;;;;;;;;;;;;;;;10.55;88.11;98502.44;4877232;29;19932;-84
2023/06/03 05:45:18;;;;;;;;;;;;;;;10.57;88.16;98500.31;4863672;29;19992;-85
2023/06/03 05:47:45;;;;;;;;;;;;;;;10.56;87.83;98490.59;4864924;29;19939;-85
2023/06/03 05:50:12;;;;;;;;;;;;;;;10.49;87.68;98492.69;4895855;29;19928;-85
2023/06/03 05:52:42;;;;;;;;;;;;;;;10.47;87.86;98489.44;4876706;29;19928;-85
2023/06/03 05:55:12;;;;;;;;;;;;;;;10.59;87.69;98482.00;4861102;29;20020;-86
2023/06/03 05:57:42;;;;;;;;;;;;;;;10.63;87.31;98472.28;4877248;29;19928;-86
2023/06/03 06:00:10;;;;;;;;;;;;;;;10.59;87.14;98482.81;4877974;29;19928;-86
2023/06/03 06:02:40;;;;;;;;;;;;;;;10.61;87.21;98493.34;4877167;29;19958;-87
2023/06/03 06:05:09;;;;;;;;;;;;;;;10.63;87.25;98478.53;4876249;29;20298;-86
2023/06/03 06:07:56;;;;;;;;;;;;;;;10.68;86.97;98485.81;4877397;29;19932;-87
2023/06/03 06:10:23;;;;;;;;;;;;;;;10.67;86.90;98491.50;4877588;29;19927;-87
2023/06/03 06:16:02;;;;;;;;;;;;;;;10.67;86.58;98478.00;4879863;29;20339;-87
2023/06/03 06:18:30;;;;;;;;;;;;;;;10.66;86.57;98496.09;4865169;29;19928;-86
2023/06/03 06:20:58;;;;;;;;;;;;;;;10.47;85.89;98494.84;4879889;29;19928;-86
2023/06/03 06:23:28;;;;;;;;;;;;;;;10.22;85.43;98496.19;4880181;29;19932;-86
2023/06/03 06:25:57;;;;;;;;;;;;;;;10.15;86.00;98509.03;4872366;29;19927;-85
2023/06/03 06:28:26;;;;;;;;;;;;;;;10.11;86.46;98499.84;4891500;29;19928;-86
2023/06/03 06:31:03;;;;;;;;;;;;;;;10.03;86.48;98494.91;4880375;29;19931;-85
2023/06/03 06:33:37;;;;;;;;;;;;;;;10.01;86.45;98494.34;4855640;29;20379;-88
2023/06/03 06:36:17;;;;;;;;;;;;;;;9.94;86.43;98499.94;4879136;29;19927;-86
2023/06/03 06:38:44;;;;;;;;;;;;;;;9.97;86.77;98502.91;4868871;29;20168;-84
2023/06/03 06:41:12;;;;;;;;;;;;;;;9.97;86.67;98500.22;4863476;29;19942;-86
2023/06/03 06:43:39;;;;;;;;;;;;;;;9.80;86.49;98506.75;4852070;29;19991;-87
2023/06/03 06:46:07;;;;;;;;;;;;;;;9.79;86.87;98511.34;4851507;29;20399;-86
2023/06/03 06:48:35;;;;;;;;;;;;;;;9.65;86.53;98537.06;4850047;29;19942;-86
2023/06/03 06:51:03;;;;;;;;;;;;;;;9.40;86.60;98541.03;4854609;29;20012;-87
2023/06/03 06:53:36;;;;;;;;;;;;;;;9.14;87.14;98557.84;4850026;29;20027;-84
2023/06/03 06:56:07;;;;;;;;;;;;;;;9.06;87.95;98551.00;4861700;29;19928;-85
2023/06/03 06:58:46;;;;;;;;;;;;;;;9.08;88.50;98549.69;4867782;29;19926;-86
2023/06/03 07:01:38;;;;;;;;;;;;;;;9.05;88.86;98558.28;4867695;29;19935;-84
2023/06/03 07:04:06;;;;;;;;;;;;;;;8.95;89.02;98533.88;4882766;29;19932;-85
2023/06/03 07:06:33;;;;;;;;;;;;;;;8.82;89.09;98536.91;4847765;29;20422;-86
2023/06/03 07:09:06;;;;;;;;;;;;;;;8.64;89.30;98548.72;4854654;29;19935;-86
2023/06/03 07:11:45;;;;;;;;;;;;;;;8.49;90.09;98553.84;4859752;29;19927;-85
2023/06/03 07:14:15;;;;;;;;;;;;;;;8.42;91.05;98562.84;4858496;29;19932;-86
2023/06/03 07:16:43;;;;;;;;;;;;;;;8.46;91.62;98564.03;4898417;29;20737;-85
2023/06/03 07:19:13;;;;;;;;;;;;;;;8.35;92.11;98572.09;4887523;29;19935;-85
2023/06/03 07:21:44;;;;;;;;;;;;;;;8.31;93.01;98558.34;4884605;29;19935;-85
2023/06/03 07:24:13;;;;;;;;;;;;;;;8.32;93.85;98559.13;4891280;29;19946;-86
2023/06/03 07:26:45;;;;;;;;;;;;;;;8.36;94.75;98552.25;4886713;29;19939;-87
2023/06/03 07:29:15;;;;;;;;;;;;;;;8.06;94.79;98552.47;4885756;29;19993;-86
2023/06/03 07:31:46;;;;;;;;;;;;;;;7.96;96.07;98553.09;4881565;29;19927;-85
2023/06/03 07:34:17;;;;;;;;;;;;;;;8.06;97.02;98534.47;4879395;29;19934;-86
2023/06/03 07:36:44;;;;;;;;;;;;;;;8.18;97.37;98537.94;4867491;29;19934;-85
2023/06/03 07:39:15;;;;;;;;;;;;;;;8.12;97.78;98546.13;4881950;29;19982;-87
2023/06/03 07:41:52;;;;;;;;;;;;;;;8.18;98.36;98537.94;4883035;29;19934;-86
2023/06/03 07:44:46;;;;;;;;;;;;;;;8.13;98.70;98532.47;4898326;29;19975;-87
2023/06/03 07:47:14;;;;;;;;;;;;;;;8.09;99.17;98530.50;4899196;29;19935;-86
2023/06/03 07:49:45;;;;;;;;;;;;;;;8.11;99.52;98539.13;4899577;29;19954;-87
2023/06/03 07:52:15;;;;;;;;;;;;;;;8.06;99.71;98542.53;4901057;29;19931;-87
2023/06/03 07:57:42;;;;;;;;;;;;;;;7.91;99.95;98547.59;4900247;29;19948;-88
2023/06/03 08:00:10;;;;;;;;;;;;;;;7.94;100.00;98549.81;4898994;29;19966;-86
2023/06/03 08:02:38;;;;;;;;;;;;;;;7.93;100.00;98558.94;4881431;29;19928;-86
2023/06/03 08:05:05;;;;;;;;;;;;;;;7.80;100.00;98566.22;4879561;29;19934;-86
2023/06/03 08:07:32;;;;;;;;;;;;;;;7.68;99.27;98589.59;4875216;29;20409;-84
2023/06/03 08:10:03;;;;;;;;;;;;;;;7.49;98.86;98598.81;4876484;29;20342;-85
2023/06/03 08:12:31;;;;;;;;;;;;;;;7.59;99.23;98615.16;4870773;29;19936;-86
2023/06/03 08:14:59;;;;;;;;;;;;;;;7.51;97.99;98637.00;4869100;29;19936;-87
2023/06/03 08:17:35;;;;;;;;;;;;;;;7.33;97.37;98657.53;4878864;29;19950;-87
2023/06/03 08:20:08;;;;;;;;;;;;;;;7.27;97.51;98685.31;4536968;29;10000078;-90
2023/06/03 08:22:37;;;;;;;;;;;;;;;7.24;98.20;98687.63;4868475;29;20548;-88
2023/06/03 08:25:04;;;;;;;;;;;;;;;7.35;100.00;98684.16;4876562;29;19971;-87
2023/06/03 08:27:32;;;;;;;;;;;;;;;7.32;100.00;98677.38;4872713;29;19928;-85
2023/06/03 08:29:59;;;;;;;;;;;;;;;7.22;100.00;98690.56;4853123;29;20315;-86
2023/06/03 08:32:45;;;;;;;;;;;;;;;7.19;100.00;98680.28;4860308;29;19963;-85
2023/06/03 08:35:15;;;;;;;;;;;;;;;7.13;100.00;98673.94;4861812;29;20677;-86
2023/06/03 08:37:42;;;;;;;;;;;;;;;7.18;100.00;98667.91;4851568;29;19928;-85
2023/06/03 08:40:10;;;;;;;;;;;;;;;7.11;100.00;98659.94;4859409;29;19984;-88
2023/06/03 08:42:39;;;;;;;;;;;;;;;7.27;100.00;98668.41;4875465;29;20680;-87
2023/06/03 08:45:07;;;;;;;;;;;;;;;7.34;100.00;98667.25;4879152;29;19987;-90
2023/06/03 08:47:36;;;;;;;;;;;;;;;7.45;100.00;98665.59;4868613;29;19954;-86
2023/06/03 08:50:07;;;;;;;;;;;;;;;7.53;100.00;98677.88;4869037;29;19979;-84
2023/06/03 08:52:35;;;;;;;;;;;;;;;7.42;100.00;98700.97;4870419;29;19980;-84
2023/06/03 08:55:02;;;;;;;;;;;;;;;7.20;98.95;98726.72;4867693;29;19995;-86
2023/06/03 08:57:30;;;;;;;;;;;;;;;7.08;98.81;98729.34;4864203;29;19932;-85
2023/06/03 08:59:57;;;;;;;;;;;;;;;6.99;98.77;98725.34;4860710;29;19927;-84
2023/06/03 09:02:27;;;;;;;;;;;;;;;7.02;99.14;98720.38;4873306;29;19970;-82
2023/06/03 09:04:55;;;;;;;;;;;;;;;7.19;99.65;98708.97;4866829;29;20007;-86
2023/06/03 09:07:22;;;;;;;;;;;;;;;7.39;99.79;98706.78;4854463;29;19934;-83
2023/06/03 09:09:52;;;;;;;;;;;;;;;7.48;99.64;98685.81;4871275;29;19927;-84
2023/06/03 09:12:20;;;;;;;;;;;;;;;7.47;99.17;98686.84;4862521;29;19928;-84
2023/06/03 09:14:47;;;;;;;;;;;;;;;7.43;98.95;98691.06;4867367;29;19970;-85
2023/06/03 09:17:14;;;;;;;;;;;;;;;7.48;99.08;98686.63;4872692;29;19928;-86
2023/06/03 09:19:41;;;;;;;;;;;;;;;7.53;98.94;98697.47;4865330;29;19969;-84
2023/06/03 09:22:08;;;;;;;;;;;;;;;7.31;97.73;98686.47;4870100;29;19928;-86
2023/06/03 09:24:35;;;;;;;;;;;;;;;7.22;97.72;98674.44;4878841;29;19961;-83
2023/06/03 09:27:21;;;;;;;;;;;;;;;7.25;98.16;98671.28;4862276;29;19928;-85
2023/06/03 09:32:37;;;;;;;;;;;;;;;7.51;98.01;98693.38;4876741;29;20482;-85
2023/06/03 09:35:05;;;;;;;;;;;;;;;7.82;97.88;98705.66;4869431;29;19928;-85
2023/06/03 09:37:33;;;;;;;;;;;;;;;7.70;96.49;98712.91;4866676;29;19931;-87
2023/06/03 09:40:09;;;;;;;;;;;;;;;7.54;94.78;98717.09;4852833;29;19985;-85
2023/06/03 09:42:41;;;;;;;;;;;;;;;7.59;94.37;98715.34;4833949;29;19934;-83
2023/06/03 09:45:22;;;;;;;;;;;;;;;7.77;94.53;98711.75;4870692;29;19935;-86
2023/06/03 09:47:49;;;;;;;;;;;;;;;7.92;94.12;98702.38;4862334;29;20022;-85
2023/06/03 09:50:16;;;;;;;;;;;;;;;8.12;93.45;98702.84;4858468;29;20366;-86
2023/06/03 09:52:44;;;;;;;;;;;;;;;8.12;91.81;98702.84;4878809;29;19927;-86
2023/06/03 09:55:14;;;;;;;;;;;;;;;8.04;90.44;98706.69;4863447;29;19960;-86
2023/06/03 09:57:41;;;;;;;;;;;;;;;7.95;89.67;98721.56;4876623;29;19980;-85
2023/06/03 10:00:10;;;;;;;;;;;;;;;8.10;90.17;98736.38;4874538;29;20018;-86
2023/06/03 10:02:42;;;;;;;;;;;;;;;8.03;89.70;98742.69;4863897;29;20332;-86
2023/06/03 10:05:27;;;;;;;;;;;;;;;7.85;89.13;98748.19;4870035;29;20497;-85
2023/06/03 10:07:54;;;;;;;;;;;;;;;7.82;89.27;98745.94;4867991;29;19928;-85
2023/06/03 10:10:22;;;;;;;;;;;;;;;7.74;88.29;98757.88;4874984;29;20306;-85
2023/06/03 10:12:49;;;;;;;;;;;;;;;7.62;87.92;98767.75;4866592;29;19956;-83
2023/06/03 10:15:36;;;;;;;;;;;;;;;7.60;88.11;98775.25;4867867;29;20352;-84
2023/06/03 10:18:04;;;;;;;;;;;;;;;7.65;87.92;98783.44;4861492;29;19934;-83
2023/06/03 10:20:35;;;;;;;;;;;;;;;7.79;88.44;98782.16;4871970;29;19934;-85
2023/06/03 10:23:03;;;;;;;;;;;;;;;7.72;87.01;98794.06;4866358;29;19935;-84
2023/06/03 10:25:54;;;;;;;;;;;;;;;7.69;87.13;98789.97;4858020;29;19935;-84
2023/06/03 10:28:21;;;;;;;;;;;;;;;7.71;87.14;98792.44;4854815;29;19928;-85
2023/06/03 10:30:48;;;;;;;;;;;;;;;7.74;86.70;98803.53;4842531;29;19976;-85
2023/06/03 10:33:15;;;;;;;;;;;;;;;7.60;85.96;98797.56;4861623;29;19928;-85
2023/06/03 10:35:42;;;;;;;;;;;;;;;7.53;86.03;98820.19;4868962;29;19935;-84
2023/06/03 10:38:14;;;;;;;;;;;;;;;7.49;85.77;98824.38;4866655;29;19928;-85
2023/06/03 10:40:41;;;;;;;;;;;;;;;7.53;86.00;98836.31;4849269;29;19928;-85
2023/06/03 10:43:15;;;;;;;;;;;;;;;7.55;85.86;98836.91;4857039;29;19978;-86
2023/06/03 10:48:30;;;;;;;;;;;;;;;7.39;85.49;98854.44;4847676;29;20331;-86
2023/06/03 10:51:00;;;;;;;;;;;;;;;7.38;85.95;98855.50;4866012;29;19932;-86
2023/06/03 10:53:38;;;;;;;;;;;;;;;7.44;86.14;98867.19;4875606;29;20018;-86
2023/06/03 10:56:21;;;;;;;;;;;;;;;7.37;85.87;98862.75;4874102;29;19928;-83
2023/06/03 10:58:58;;;;;;;;;;;;;;;7.34;85.69;98873.09;4870068;29;19935;-83
2023/06/03 11:01:46;;;;;;;;;;;;;;;7.31;85.41;98846.72;4871405;29;19963;-81
2023/06/03 11:04:17;;;;;;;;;;;;;;;7.31;85.16;98870.88;4872549;29;19956;-83
2023/06/03 11:06:44;;;;;;;;;;;;;;;7.29;84.95;98876.50;4871236;29;19935;-82
2023/06/03 11:09:18;;;;;;;;;;;;;;;7.26;84.69;98884.16;4871956;29;19928;-84
2023/06/03 11:11:55;;;;;;;;;;;;;;;7.34;85.02;98886.53;4874369;29;20480;-83
2023/06/03 11:14:25;;;;;;;;;;;;;;;7.35;85.04;98918.53;4868420;29;19974;-84
2023/06/03 11:16:55;;;;;;;;;;;;;;;7.26;84.62;98921.75;4879302;29;19934;-84
2023/06/03 11:19:32;;;;;;;;;;;;;;;7.17;84.37;98918.56;4882797;29;20355;-84
2023/06/03 11:21:59;;;;;;;;;;;;;;;7.18;84.77;98917.50;4860288;29;19935;-84
2023/06/03 11:24:37;;;;;;;;;;;;;;;7.25;85.06;98922.81;4860060;29;19935;-84
2023/06/03 11:27:05;;;;;;;;;;;;;;;7.24;84.19;98913.09;4863083;29;19930;-84
2023/06/03 11:29:41;;;;;;;;;;;;;;;7.12;83.83;98921.09;4878460;29;19932;-83
2023/06/03 11:32:16;;;;;;;;;;;;;;;7.16;83.75;98922.25;4877724;29;19928;-83
2023/06/03 11:34:59;;;;;;;;;;;;;;;7.26;84.02;98919.88;4845037;29;20014;-84
2023/06/03 11:37:44;;;;;;;;;;;;;;;7.15;82.75;98923.31;4873615;29;20066;-84
2023/06/03 11:40:25;;;;;;;;;;;;;;;7.06;82.02;98919.28;4878582;29;20454;-84
2023/06/03 11:42:55;;;;;;;;;;;;;;;6.96;80.97;98930.53;4880894;29;19928;-84
2023/06/03 11:45:26;;;;;;;;;;;;;;;6.84;81.00;98935.03;4882272;29;19983;-84
2023/06/03 11:47:55;;;;;;;;;;;;;;;6.91;81.59;98923.19;4862029;29;19928;-84
2023/06/03 11:50:27;;;;;;;;;;;;;;;6.98;81.29;98933.81;4876767;29;19936;-83
2023/06/03 11:52:54;;;;;;;;;;;;;;;7.14;81.42;98932.41;4861994;29;20353;-83
2023/06/03 11:55:22;;;;;;;;;;;;;;;7.21;80.33;98933.16;4877228;29;19927;-84
2023/06/03 11:57:50;;;;;;;;;;;;;;;7.20;79.83;98952.19;4877405;29;19927;-85
2023/06/03 12:00:17;;;;;;;;;;;;;;;7.28;80.13;98952.69;4874807;29;19938;-84
2023/06/03 12:02:46;;;;;;;;;;;;;;;7.26;79.52;98941.34;4877730;29;20026;-82
2023/06/03 12:05:15;;;;;;;;;;;;;;;7.36;79.04;98955.06;4845374;29;19928;-84
2023/06/03 12:08:00;;;;;;;;;;;;;;;7.15;78.76;98934.88;4878198;29;19943;-85
2023/06/03 12:10:27;;;;;;;;;;;;;;;7.05;78.62;98960.59;4875247;29;20018;-84
2023/06/03 12:12:55;;;;;;;;;;;;;;;6.90;78.98;98975.19;4864990;29;19934;-84
2023/06/03 12:15:23;;;;;;;;;;;;;;;6.93;78.95;98964.00;4874364;29;19928;-85
2023/06/03 12:17:50;;;;;;;;;;;;;;;7.09;79.32;98972.50;4873312;29;19967;-84
2023/06/03 12:20:24;;;;;;;;;;;;;;;7.24;79.21;98975.69;4866367;29;19928;-84
2023/06/03 12:23:01;;;;;;;;;;;;;;;7.40;79.16;98979.63;4869535;29;19934;-86
2023/06/03 12:25:35;;;;;;;;;;;;;;;7.35;78.10;98988.34;4869897;29;20034;-85
2023/06/03 12:28:22;;;;;;;;;;;;;;;7.44;78.54;98986.16;4858971;29;19935;-83
2023/06/03 12:30:50;;;;;;;;;;;;;;;7.53;78.21;98973.25;4872601;29;20470;-84
2023/06/03 12:33:18;;;;;;;;;;;;;;;7.52;78.17;98976.97;4869787;29;19928;-84
2023/06/03 12:35:55;;;;;;;;;;;;;;;7.40;76.90;98984.16;4875848;29;19991;-85
2023/06/03 12:38:26;;;;;;;;;;;;;;;7.40;76.66;98987.66;4862869;29;19932;-85
2023/06/03 12:40:55;;;;;;;;;;;;;;;7.56;76.88;98991.59;4870160;29;20026;-85
2023/06/03 12:43:22;;;;;;;;;;;;;;;7.67;76.89;98990.88;4858242;29;20401;-84
2023/06/03 12:46:19;;;;;;;;;;;;;;;7.92;76.97;98985.34;4877468;29;19932;-84
2023/06/03 12:48:49;;;;;;;;;;;;;;;8.11;76.73;99002.25;4874645;29;20457;-85
2023/06/03 12:51:28;;;;;;;;;;;;;;;8.05;76.66;99003.16;4870963;29;20036;-88
2023/06/03 12:53:57;;;;;;;;;;;;;;;8.21;76.46;99005.22;4875132;29;19984;-84
2023/06/03 12:56:31;;;;;;;;;;;;;;;8.25;75.52;99002.88;4868372;29;20026;-86
2023/06/03 12:58:58;;;;;;;;;;;;;;;8.15;75.55;99013.38;4876880;29;19939;-85
2023/06/03 13:01:25;;;;;;;;;;;;;;;8.00;74.57;99021.84;4876172;29;19927;-85
2023/06/03 13:03:55;;;;;;;;;;;;;;;7.92;75.13;99016.78;4872679;29;19928;-83
2023/06/03 13:06:28;;;;;;;;;;;;;;;7.89;74.73;99009.19;4848349;29;19950;-84
2023/06/03 13:08:56;;;;;;;;;;;;;;;7.96;75.45;99009.91;4873367;29;19974;-85
2023/06/03 13:11:23;;;;;;;;;;;;;;;8.03;75.63;99016.84;4852290;29;20023;-85
2023/06/03 13:13:50;;;;;;;;;;;;;;;8.13;75.62;99015.50;4859096;29;19940;-85
2023/06/03 13:16:17;;;;;;;;;;;;;;;8.21;75.69;99017.84;4860938;29;19956;-86
2023/06/03 13:18:45;;;;;;;;;;;;;;;8.33;75.72;99015.16;4867730;29;19931;-85
2023/06/03 13:21:12;;;;;;;;;;;;;;;8.49;75.17;99014.56;4866236;29;19943;-86
2023/06/03 13:23:39;;;;;;;;;;;;;;;8.63;74.79;99010.63;4885194;29;19928;-84